Terminal Aerodrome Forecast
Issued by NWS Charleston, SC

Home | Current Version | Previous Version | Text Only | Print | Product List | Glossary On
Versions: 1 2 3 4 5 6 7 8 9 10 11 12 13 14 15 16 17 18 19 20 21 22 23 24 25 26 27 28 29 30 31 32
000
FTUS42 KCHS 271100
TAFCHS
TAF
KCHS 271123Z 2712/2812 25010KT P6SM SKC WS010/27040KT
     FM271330 25013G20KT P6SM SKC
     FM271500 29017G25KT P6SM SCT050
     FM272230 33007KT P6SM SKC=

USA.gov is the U.S. government's official web portal to all federal, state and local government web resources and services.